Time;durP1;ratioP1;P1;durP2;ratioP2;P2;SDS_P1;SDS_P2;PMS_P1;PMS_P2;Temp;Humidity;BMP_temperature;BMP_pressure;BME280_temperature;BME280_humidity;BME280_pressure;Samples;Min_cycle;Max_cycle;Signal;HPM_P1;HPM_P2
2021/12/09 00:01:17;;;;;;;17.13;7.28;;;;;;;1.48;100.00;59916.97;5049375;28;20041;-70
2021/12/09 00:03:42;;;;;;;16.55;7.85;;;;;;;1.43;100.00;59911.72;5048166;28;20045;-70
2021/12/09 00:06:12;;;;;;;11.67;6.87;;;;;;;1.48;100.00;59917.50;5047920;28;20079;-70
2021/12/09 00:08:38;;;;;;;17.25;7.50;;;;;;;1.46;100.00;59915.41;5048764;28;20124;-70
2021/12/09 00:11:05;;;;;;;18.95;7.75;;;;;;;1.54;100.00;59921.28;5049156;28;20083;-71
2021/12/09 00:13:31;;;;;;;15.00;7.07;;;;;;;1.53;100.00;59922.75;5049656;28;20516;-70
2021/12/09 00:15:57;;;;;;;17.43;6.60;;;;;;;1.65;100.00;59932.31;5049083;28;20296;-70
2021/12/09 00:18:24;;;;;;;19.43;6.97;;;;;;;1.67;100.00;59936.94;5048945;28;20075;-70
2021/12/09 00:20:49;;;;;;;11.88;6.35;;;;;;;1.66;100.00;59937.88;5048108;28;20282;-69
2021/12/09 00:23:15;;;;;;;12.30;7.03;;;;;;;1.66;100.00;59937.88;5048894;28;20045;-70
2021/12/09 00:25:41;;;;;;;21.13;7.47;;;;;;;1.66;100.00;59938.38;5048528;28;20051;-70
2021/12/09 00:28:07;;;;;;;17.10;7.37;;;;;;;1.71;100.00;59938.09;5049555;28;20033;-70
2021/12/09 00:30:33;;;;;;;16.53;7.20;;;;;;;1.76;100.00;59945.34;5048856;28;20048;-70
2021/12/09 00:33:00;;;;;;;15.32;6.95;;;;;;;1.80;100.00;59949.53;5048740;28;20306;-70
2021/12/09 00:35:32;;;;;;;14.45;6.65;;;;;;;1.83;100.00;59955.72;5048173;28;20040;-70
2021/12/09 00:38:03;;;;;;;16.23;7.30;;;;;;;1.93;100.00;59965.72;5048579;28;20048;-69
2021/12/09 00:40:29;;;;;;;12.73;6.05;;;;;;;1.99;100.00;59969.50;5048355;28;20049;-70
2021/12/09 00:42:54;;;;;;;17.03;7.13;;;;;;;2.00;100.00;59970.56;5048725;28;20040;-67
2021/12/09 00:45:21;;;;;;;12.93;6.33;;;;;;;1.99;100.00;59967.00;5048713;28;20454;-70
2021/12/09 00:47:47;;;;;;;14.00;6.47;;;;;;;2.04;100.00;59971.72;5047954;28;20037;-67
2021/12/09 00:50:13;;;;;;;17.37;6.63;;;;;;;1.96;100.00;59963.84;5048439;28;20036;-70
2021/12/09 00:52:39;;;;;;;11.97;6.17;;;;;;;1.94;100.00;59961.72;5048835;28;20303;-69
2021/12/09 00:55:06;;;;;;;13.90;6.43;;;;;;;1.96;100.00;59966.34;5048393;28;20490;-70
2021/12/09 00:57:32;;;;;;;12.07;5.90;;;;;;;1.96;100.00;59970.84;5047666;28;20370;-70
2021/12/09 00:59:59;;;;;;;14.83;6.10;;;;;;;1.84;100.00;59956.78;5048152;28;20345;-70
2021/12/09 01:02:24;;;;;;;14.02;6.25;;;;;;;1.82;100.00;59954.66;5048331;28;20506;-70
2021/12/09 01:04:52;;;;;;;11.50;5.93;;;;;;;1.79;100.00;59949.00;5048012;28;20048;-70
2021/12/09 01:07:17;;;;;;;13.18;5.95;;;;;;;1.78;100.00;59947.44;5048034;28;20060;-70
2021/12/09 01:09:42;;;;;;;14.53;5.63;;;;;;;1.73;100.00;59947.75;5048603;28;20106;-70
2021/12/09 01:12:09;;;;;;;16.73;5.63;;;;;;;1.72;100.00;59946.69;5048029;28;20032;-69
2021/12/09 01:14:37;;;;;;;13.23;6.05;;;;;;;1.80;100.00;59954.56;5047918;28;20045;-69
2021/12/09 01:17:04;;;;;;;18.43;6.80;;;;;;;1.81;100.00;59950.59;5047930;28;20044;-68
2021/12/09 01:19:30;;;;;;;16.75;5.65;;;;;;;1.76;100.00;59947.84;5047048;28;20287;-69
2021/12/09 01:21:55;;;;;;;17.90;5.83;;;;;;;1.71;100.00;59943.66;5048038;28;20040;-69
2021/12/09 01:24:21;;;;;;;13.27;5.40;;;;;;;1.73;100.00;59943.22;5046260;28;20043;-70
2021/12/09 01:26:48;;;;;;;16.93;5.43;;;;;;;1.80;100.00;59947.03;5048578;28;20051;-69
2021/12/09 01:29:18;;;;;;;14.05;5.00;;;;;;;1.82;100.00;59952.16;5047664;28;20127;-69
2021/12/09 01:31:52;;;;;;;14.33;5.83;;;;;;;1.81;100.00;59950.59;5046268;28;20041;-69
2021/12/09 01:34:19;;;;;;;9.68;4.55;;;;;;;1.84;100.00;59953.72;5047699;28;20704;-69
2021/12/09 01:36:47;;;;;;;16.77;7.10;;;;;;;1.87;100.00;59954.38;5047609;28;20469;-69
2021/12/09 01:39:14;;;;;;;14.10;5.23;;;;;;;1.88;100.00;59962.97;5047256;28;20650;-69
2021/12/09 01:41:40;;;;;;;16.40;5.27;;;;;;;1.87;100.00;59954.91;5047180;28;20327;-69
2021/12/09 01:44:06;;;;;;;14.13;5.30;;;;;;;1.89;100.00;59959.50;5047071;28;20282;-69
2021/12/09 01:46:31;;;;;;;12.65;5.15;;;;;;;1.81;100.00;59956.16;5047623;28;20041;-69
2021/12/09 01:48:57;;;;;;;16.63;4.80;;;;;;;1.76;100.00;59945.84;5047281;28;20037;-69
2021/12/09 01:51:22;;;;;;;11.10;4.57;;;;;;;1.77;100.00;59949.44;5047818;28;20409;-69
2021/12/09 01:53:48;;;;;;;15.03;5.30;;;;;;;1.68;100.00;59934.94;5047112;28;20137;-69
2021/12/09 01:56:21;;;;;;;18.02;4.75;;;;;;;1.71;100.00;59938.09;5047246;28;20048;-69
2021/12/09 01:58:57;;;;;;;12.73;5.28;;;;;;;1.70;100.00;59940.06;5047257;28;20067;-69
2021/12/09 02:01:23;;;;;;;;;;;;;;;1.68;100.00;59935.47;5047696;28;20040;-69
2021/12/09 02:03:49;;;;;;;13.45;4.43;;;;;;;1.68;100.00;59935.47;5046565;28;20308;-69
2021/12/09 02:06:15;;;;;;;16.50;5.70;;;;;;;1.58;100.00;59924.97;5047190;28;20033;-69
2021/12/09 02:08:40;;;;;;;13.03;4.60;;;;;;;1.55;100.00;59924.31;5047101;28;20037;-69
2021/12/09 02:11:06;;;;;;;13.77;4.97;;;;;;;1.51;100.00;59920.13;5046699;28;20285;-69
2021/12/09 02:13:32;;;;;;;16.87;5.20;;;;;;;1.49;100.00;59918.53;5047474;28;20068;-69
2021/12/09 02:15:57;;;;;;;15.10;4.70;;;;;;;1.45;100.00;59914.34;5046704;28;20433;-69
2021/12/09 02:18:24;;;;;;;16.17;6.50;;;;;;;1.37;100.00;59903.97;5046789;28;20270;-69
2021/12/09 02:21:13;;;;;;;16.63;7.15;;;;;;;1.29;100.00;59897.53;5046508;28;20528;-69
2021/12/09 02:23:43;;;;;;;19.08;6.22;;;;;;;1.26;100.00;59894.91;5046819;28;20051;-70
2021/12/09 02:26:09;;;;;;;14.40;5.50;;;;;;;1.20;100.00;59891.66;5046267;28;20037;-69
2021/12/09 02:28:35;;;;;;;14.77;5.72;;;;;;;1.18;100.00;59887.03;5046483;28;20437;-69
2021/12/09 02:31:00;;;;;;;19.37;5.10;;;;;;;1.15;100.00;59878.34;5046895;28;20072;-69
2021/12/09 02:33:26;;;;;;;14.10;5.40;;;;;;;1.06;100.00;59876.41;5046674;28;20541;-69
2021/12/09 02:35:51;;;;;;;15.00;5.50;;;;;;;0.98;100.00;59869.06;5046817;28;20039;-70
2021/12/09 02:38:17;;;;;;;13.10;5.60;;;;;;;0.91;100.00;59856.69;5047111;28;20555;-69
2021/12/09 02:40:42;;;;;;;19.17;6.23;;;;;;;0.87;100.00;59855.00;5046485;28;20616;-69
2021/12/09 02:43:08;;;;;;;13.60;6.30;;;;;;;0.89;100.00;59854.06;5046837;28;20040;-69
2021/12/09 02:45:35;;;;;;;14.80;5.70;;;;;;;0.93;100.00;59863.81;5046463;28;20037;-69
2021/12/09 02:48:01;;;;;;;12.68;5.68;;;;;;;0.93;100.00;59861.31;5046768;28;20037;-69
2021/12/09 02:50:26;;;;;;;17.10;5.60;;;;;;;0.89;100.00;59857.09;5046392;28;20037;-69
2021/12/09 02:52:52;;;;;;;19.97;6.40;;;;;;;0.88;100.00;59856.06;5046483;28;20103;-69
2021/12/09 02:55:17;;;;;;;17.17;5.67;;;;;;;0.90;100.00;59860.16;5047261;28;20041;-69
2021/12/09 02:57:43;;;;;;;16.47;6.70;;;;;;;0.95;100.00;59865.94;5046428;28;20037;-69
2021/12/09 03:00:10;;;;;;;14.30;5.40;;;;;;;0.92;100.00;59862.25;5046684;28;20505;-69
2021/12/09 03:02:37;;;;;;;15.23;6.50;;;;;;;0.97;100.00;59862.47;5046076;28;20111;-68
2021/12/09 03:05:04;;;;;;;11.32;5.53;;;;;;;0.93;100.00;59858.28;5046633;28;20041;-68
2021/12/09 03:07:36;;;;;;;12.57;5.35;;;;;;;0.96;100.00;59864.44;5046093;28;20136;-68
2021/12/09 03:10:20;;;;;;;20.88;6.05;;;;;;;1.04;100.00;59869.81;5046672;28;20041;-68
2021/12/09 03:12:50;;;;;;;14.52;6.18;;;;;;;1.00;100.00;59868.13;5045812;28;20182;-68
2021/12/09 03:15:16;;;;;;;19.10;5.95;;;;;;;1.04;100.00;59870.34;5046345;28;20037;-68
2021/12/09 03:17:43;;;;;;;13.80;6.18;;;;;;;0.97;100.00;59865.00;5045899;28;20091;-68
2021/12/09 03:20:11;;;;;;;15.60;5.80;;;;;;;1.06;100.00;59871.41;5046062;28;20045;-68
2021/12/09 03:22:38;;;;;;;17.70;6.43;;;;;;;1.05;100.00;59873.38;5045963;28;20052;-68
2021/12/09 03:25:07;;;;;;;17.38;6.30;;;;;;;1.05;100.00;59875.88;5046380;28;20116;-68
2021/12/09 03:27:33;;;;;;;18.17;6.28;;;;;;;1.04;100.00;59872.34;5046037;28;20044;-68
2021/12/09 03:29:58;;;;;;;20.40;6.13;;;;;;;1.02;100.00;59873.28;5046691;28;20048;-68
2021/12/09 03:32:24;;;;;;;12.23;5.83;;;;;;;0.92;100.00;59859.72;5046125;28;20037;-68
2021/12/09 03:34:50;;;;;;;14.23;6.60;;;;;;;0.88;100.00;59858.56;5046132;28;20079;-68
2021/12/09 03:37:20;;;;;;;15.10;5.27;;;;;;;0.86;100.00;59856.47;5046097;28;20045;-68
2021/12/09 03:39:45;;;;;;;13.65;5.45;;;;;;;0.86;100.00;59854.50;5048237;28;20927;-68
2021/12/09 03:42:14;;;;;;;20.23;5.83;;;;;;;0.86;100.00;59854.50;5050022;28;20082;-68
2021/12/09 03:44:40;;;;;;;15.40;5.18;;;;;;;0.87;100.00;59855.00;5049377;28;20502;-68
2021/12/09 03:47:09;;;;;;;13.50;4.80;;;;;;;0.89;100.00;59856.59;5049688;28;20048;-68
2021/12/09 03:49:36;;;;;;;13.32;5.38;;;;;;;0.89;100.00;59859.59;5049412;28;20052;-69
2021/12/09 03:52:02;;;;;;;15.73;5.88;;;;;;;0.82;100.00;59847.25;5050308;28;20098;-68
2021/12/09 03:54:28;;;;;;;18.70;5.78;;;;;;;0.76;100.00;59844.00;5049097;28;20048;-68
2021/12/09 03:56:53;;;;;;;13.93;4.97;;;;;;;0.67;100.00;59834.53;5049747;28;20052;-68
2021/12/09 03:59:19;;;;;;;18.70;5.30;;;;;;;0.66;100.00;59828.47;5049360;28;20048;-68
2021/12/09 04:01:45;;;;;;;14.20;5.93;;;;;;;0.64;100.00;59831.94;5049057;28;20110;-68
2021/12/09 04:04:12;;;;;;;12.57;4.78;;;;;;;0.65;100.00;59832.97;5049393;28;20055;-69
2021/12/09 04:06:38;;;;;;;15.60;4.80;;;;;;;0.71;100.00;59838.22;5049588;28;20438;-68
2021/12/09 04:09:07;;;;;;;14.97;5.33;;;;;;;0.68;100.00;59841.13;5049386;28;20068;-68
2021/12/09 04:11:33;;;;;;;15.52;5.47;;;;;;;0.65;100.00;59834.94;5048954;28;20108;-68
2021/12/09 04:13:59;;;;;;;13.18;5.03;;;;;;;0.72;100.00;59841.78;5048962;28;20045;-68
2021/12/09 04:16:25;;;;;;;18.27;4.87;;;;;;;0.74;100.00;59843.88;5049149;28;20059;-68
2021/12/09 04:18:50;;;;;;;14.50;4.47;;;;;;;0.77;100.00;59850.03;5048964;28;20033;-68
2021/12/09 04:21:16;;;;;;;14.17;4.87;;;;;;;0.76;100.00;59846.50;5048659;28;20617;-69
2021/12/09 04:23:41;;;;;;;12.53;4.40;;;;;;;0.76;100.00;59849.00;5049482;28;20029;-68
2021/12/09 04:26:08;;;;;;;17.60;4.57;;;;;;;0.75;100.00;59845.44;5049201;28;20040;-68
2021/12/09 04:28:35;;;;;;;14.93;4.05;;;;;;;0.75;100.00;59842.94;5048672;28;20059;-68
2021/12/09 04:31:01;;;;;;;12.07;4.75;;;;;;;0.76;100.00;59845.97;5048769;28;20044;-68
2021/12/09 04:33:27;;;;;;;20.10;4.43;;;;;;;0.75;100.00;59844.94;5048507;28;20037;-68
2021/12/09 04:35:53;;;;;;;12.88;5.00;;;;;;;0.76;100.00;59843.44;5048937;28;20512;-68
2021/12/09 04:38:18;;;;;;;10.13;3.97;;;;;;;0.83;100.00;59853.31;5047474;28;20039;-69
2021/12/09 04:40:44;;;;;;;19.40;4.20;;;;;;;0.80;100.00;59848.19;5049263;28;20049;-68
2021/12/09 04:43:10;;;;;;;16.20;5.30;;;;;;;0.78;100.00;59843.06;5048430;28;20111;-69
2021/12/09 04:45:38;;;;;;;14.53;4.87;;;;;;;0.76;100.00;59844.00;5048538;28;20052;-68
2021/12/09 04:48:05;;;;;;;12.90;4.45;;;;;;;0.72;100.00;59841.78;5048515;28;20037;-69
2021/12/09 04:50:30;;;;;;;19.98;4.25;;;;;;;0.81;100.00;59849.22;5047022;28;20033;-68
2021/12/09 04:52:56;;;;;;;16.20;4.97;;;;;;;0.83;100.00;59850.81;5048298;28;20048;-69
2021/12/09 04:55:22;;;;;;;16.17;4.50;;;;;;;0.84;100.00;59854.38;5048739;28;20045;-69
2021/12/09 04:57:47;;;;;;;18.27;3.80;;;;;;;0.87;100.00;59852.50;5048420;28;20041;-68
2021/12/09 05:00:18;;;;;;;15.23;3.97;;;;;;;0.91;100.00;59861.72;5048422;28;20072;-68
2021/12/09 05:03:04;;;;;;;15.75;4.25;;;;;;;0.95;100.00;59865.38;5047848;28;20044;-68
2021/12/09 05:05:35;;;;;;;15.33;4.10;;;;;;;0.98;100.00;59866.56;5048275;28;20049;-68
2021/12/09 05:08:07;;;;;;;12.05;3.65;;;;;;;0.98;100.00;59871.59;5048156;28;20098;-68
2021/12/09 05:13:27;;;;;;;12.52;4.20;;;;;;;0.96;100.00;59866.44;5048483;28;20512;-68
2021/12/09 05:15:54;;;;;;;14.98;3.72;;;;;;;0.94;100.00;59864.34;5048045;28;20037;-68
2021/12/09 05:18:21;;;;;;;12.00;3.80;;;;;;;0.92;100.00;59857.22;5047679;28;20125;-68
2021/12/09 05:20:47;;;;;;;16.08;3.80;;;;;;;0.92;100.00;59862.78;5047148;28;20412;-68
2021/12/09 05:23:14;;;;;;;18.55;4.50;;;;;;;0.92;100.00;59862.78;5046528;28;20029;-68
2021/12/09 05:25:40;;;;;;;19.15;5.30;;;;;;;0.91;100.00;59854.19;5047011;28;20091;-68
2021/12/09 05:28:07;;;;;;;9.00;3.80;;;;;;;0.87;100.00;59860.03;5046837;28;20497;-68
2021/12/09 05:32:07;;;;;;;13.77;4.20;;;;;;;0.91;100.00;59861.72;5047399;28;20041;-68
2021/12/09 05:33:24;;;;;;;17.00;4.05;;;;;;;0.88;100.00;59856.06;5046275;28;20541;-68
2021/12/09 05:35:51;;;;;;;19.90;3.97;;;;;;;0.89;100.00;59857.09;5045920;28;20051;-68
2021/12/09 05:38:16;;;;;;;7.80;3.42;;;;;;;0.86;100.00;59856.47;5045681;28;20064;-68
2021/12/09 05:40:42;;;;;;;15.37;4.13;;;;;;;0.92;100.00;59859.72;5045740;28;20122;-68
2021/12/09 05:43:07;;;;;;;11.60;4.03;;;;;;;0.85;100.00;59850.91;5051659;28;20040;-68
2021/12/09 05:45:32;;;;;;;18.23;5.37;;;;;;;0.83;100.00;59853.31;5067551;28;20037;-68
2021/12/09 05:47:58;;;;;;;16.50;3.87;;;;;;;0.84;100.00;59846.84;5062040;28;20067;-68
2021/12/09 05:50:23;;;;;;;14.20;4.20;;;;;;;0.82;100.00;59855.31;5057178;28;20048;-68
2021/12/09 05:52:49;;;;;;;14.73;4.37;;;;;;;0.80;100.00;59847.66;5064769;28;20036;-68
2021/12/09 05:55:15;;;;;;;15.90;4.07;;;;;;;0.82;100.00;59849.78;5052555;28;20324;-68
2021/12/09 05:57:41;;;;;;;25.90;4.87;;;;;;;0.75;100.00;59842.41;5046030;28;20282;-68
2021/12/09 06:00:08;;;;;;;16.23;3.60;;;;;;;0.82;100.00;59847.25;5054103;28;20041;-68
2021/12/09 06:02:35;;;;;;;12.70;4.22;;;;;;;0.80;100.00;59850.16;5051496;28;20041;-68
2021/12/09 06:05:01;;;;;;;16.67;4.30;;;;;;;0.77;100.00;59844.50;5065866;28;20040;-68
2021/12/09 06:07:27;;;;;;;22.40;4.78;;;;;;;0.76;100.00;59845.97;5066508;28;20033;-68
2021/12/09 06:09:52;;;;;;;11.97;4.43;;;;;;;0.79;100.00;59844.09;5066918;28;20078;-68
2021/12/09 06:12:19;;;;;;;14.80;4.13;;;;;;;0.78;100.00;59845.56;5066679;28;20633;-68
2021/12/09 06:14:45;;;;;;;12.55;3.60;;;;;;;0.78;100.00;59851.09;5061486;28;20110;-68
2021/12/09 06:17:10;;;;;;;10.90;3.53;;;;;;;0.73;100.00;59843.34;5058429;28;20032;-68
2021/12/09 06:19:36;;;;;;;10.00;3.57;;;;;;;0.73;100.00;59838.34;5066421;28;20093;-68
2021/12/09 06:22:02;;;;;;;11.00;3.40;;;;;;;0.78;100.00;59845.56;5066888;28;20109;-68
2021/12/09 06:24:28;;;;;;;14.00;3.97;;;;;;;0.75;100.00;59842.41;5066951;28;20032;-68
2021/12/09 06:26:53;;;;;;;23.10;5.17;;;;;;;0.67;100.00;59839.56;5052761;28;20102;-68
2021/12/09 06:29:18;;;;;;;19.97;4.83;;;;;;;0.68;100.00;59838.09;5045417;28;20064;-68
2021/12/09 06:31:44;;;;;;;17.47;4.70;;;;;;;0.66;100.00;59833.50;5047078;28;20041;-68
2021/12/09 06:34:12;;;;;;;19.80;4.97;;;;;;;0.72;100.00;59839.78;5046801;28;20037;-68
2021/12/09 06:36:38;;;;;;;18.83;4.85;;;;;;;0.73;100.00;59837.78;5046220;28;20075;-68
2021/12/09 06:39:05;;;;;;;17.67;4.25;;;;;;;0.73;100.00;59843.34;5046727;28;20063;-68
2021/12/09 06:41:31;;;;;;;19.23;4.28;;;;;;;0.78;100.00;59850.59;5046203;28;20033;-69
2021/12/09 06:43:56;;;;;;;14.53;4.30;;;;;;;0.76;100.00;59845.97;5046382;28;20051;-68
2021/12/09 06:46:22;;;;;;;19.93;4.47;;;;;;;0.78;100.00;59848.59;5051752;28;20505;-68
2021/12/09 06:48:47;;;;;;;17.17;4.40;;;;;;;0.77;100.00;59842.53;5058867;28;20090;-68
2021/12/09 06:51:12;;;;;;;13.80;4.80;;;;;;;0.79;100.00;59844.63;5066396;28;20047;-68
2021/12/09 06:53:38;;;;;;;13.00;4.43;;;;;;;0.83;100.00;59850.81;5066365;28;20036;-68
2021/12/09 06:56:05;;;;;;;10.00;3.33;;;;;;;0.82;100.00;59850.28;5055921;28;20048;-68
2021/12/09 06:58:31;;;;;;;17.90;4.95;;;;;;;0.86;100.00;59856.47;5046144;28;20421;-68
2021/12/09 07:00:57;;;;;;;14.57;4.00;;;;;;;0.87;100.00;59857.53;5046414;28;20039;-68
2021/12/09 07:03:23;;;;;;;13.55;4.07;;;;;;;0.85;100.00;59855.94;5066002;28;20046;-69
2021/12/09 07:05:51;;;;;;;16.57;4.63;;;;;;;0.85;100.00;59855.94;5062152;28;20044;-68
2021/12/09 07:08:17;;;;;;;15.88;4.85;;;;;;;0.83;100.00;59848.84;5045497;28;20845;-68
2021/12/09 07:10:43;;;;;;;12.87;5.40;;;;;;;0.85;100.00;59853.44;5046683;28;20120;-68
2021/12/09 07:13:09;;;;;;;12.60;4.70;;;;;;;0.89;100.00;59856.59;5051486;28;20381;-68
2021/12/09 07:15:34;;;;;;;15.87;5.03;;;;;;;0.89;100.00;59861.59;5048059;28;20044;-67
2021/12/09 07:18:00;;;;;;;16.67;5.50;;;;;;;0.97;100.00;59865.50;5048362;28;20309;-68
2021/12/09 07:20:27;;;;;;;10.80;4.07;;;;;;;0.97;100.00;59865.00;5051349;28;20048;-68
2021/12/09 07:22:54;;;;;;;14.82;4.55;;;;;;;1.03;100.00;59873.78;5049149;28;20053;-67
2021/12/09 07:25:21;;;;;;;11.75;4.70;;;;;;;1.10;100.00;59880.63;5049511;28;20053;-67
2021/12/09 07:27:47;;;;;;;19.05;5.30;;;;;;;1.15;100.00;59885.88;5062930;28;20559;-68
2021/12/09 07:30:15;;;;;;;18.53;5.20;;;;;;;1.24;100.00;59897.81;5053020;28;20044;-67
2021/12/09 07:32:41;;;;;;;14.45;4.85;;;;;;;1.27;100.00;59895.97;5054767;28;20132;-68
2021/12/09 07:35:07;;;;;;;13.67;4.80;;;;;;;1.37;100.00;59906.47;5053314;28;20147;-68
2021/12/09 07:37:34;;;;;;;13.57;4.65;;;;;;;1.41;100.00;59910.13;5069174;28;20037;-69
2021/12/09 07:39:59;;;;;;;13.35;4.53;;;;;;;1.44;100.00;59910.25;5069819;28;20041;-67
2021/12/09 07:42:25;;;;;;;21.53;4.83;;;;;;;1.52;100.00;59923.66;5068503;28;20075;-68
2021/12/09 07:44:51;;;;;;;15.97;6.20;;;;;;;1.52;100.00;59926.72;5069146;28;20120;-67
2021/12/09 07:47:17;;;;;;;16.73;5.28;;;;;;;1.58;100.00;59927.47;5068591;28;20047;-67
2021/12/09 07:49:44;;;;;;;17.98;5.20;;;;;;;1.60;100.00;59931.56;5069548;28;20056;-68
2021/12/09 07:52:09;;;;;;;15.00;5.57;;;;;;;1.67;100.00;59936.41;5069378;28;20028;-68
2021/12/09 07:54:34;;;;;;;15.43;4.57;;;;;;;1.73;100.00;59945.75;5058859;28;20051;-68
2021/12/09 07:57:01;;;;;;;15.23;5.87;;;;;;;1.74;100.00;59944.28;5066416;28;20040;-68
2021/12/09 07:59:27;;;;;;;15.63;7.05;;;;;;;1.77;100.00;59946.38;5068639;28;20072;-68
2021/12/09 08:01:52;;;;;;;14.47;5.60;;;;;;;1.79;100.00;59949.00;5069242;28;20068;-67
2021/12/09 08:04:18;;;;;;;17.73;5.50;;;;;;;1.77;100.00;59949.44;5055945;28;20055;-67
2021/12/09 08:06:43;;;;;;;20.07;5.63;;;;;;;1.81;100.00;59950.59;5062120;28;20067;-68
2021/12/09 08:09:10;;;;;;;17.23;6.40;;;;;;;1.80;100.00;59952.06;5059232;28;20040;-68
2021/12/09 08:11:38;;;;;;;19.55;5.50;;;;;;;1.85;100.00;59959.81;5056100;28;20060;-68
2021/12/09 08:14:10;;;;;;;14.05;5.28;;;;;;;1.87;100.00;59956.88;5059847;28;20386;-68
2021/12/09 08:16:37;;;;;;;14.18;5.72;;;;;;;1.85;100.00;59959.81;5061196;28;20801;-68
2021/12/09 08:19:04;;;;;;;25.75;7.65;;;;;;;1.86;100.00;59956.38;5062714;28;20090;-68
2021/12/09 08:21:33;;;;;;;15.50;6.25;;;;;;;1.87;100.00;59959.41;5060627;28;20082;-68
2021/12/09 08:23:59;;;;;;;9.98;5.00;;;;;;;1.90;100.00;59960.06;5058029;28;20089;-68
2021/12/09 08:26:24;;;;;;;14.93;6.33;;;;;;;1.85;100.00;59957.81;5062039;28;20036;-67
2021/12/09 08:28:50;;;;;;;15.20;6.50;;;;;;;1.91;100.00;59961.63;5060937;28;20044;-67
2021/12/09 08:31:16;;;;;;;24.13;6.50;;;;;;;1.94;100.00;59964.25;5066218;28;20047;-68
2021/12/09 08:33:41;;;;;;;24.20;7.67;;;;;;;1.97;100.00;59967.41;5064332;28;20036;-67
2021/12/09 08:36:07;;;;;;;17.17;6.23;;;;;;;2.00;100.00;59972.53;5067062;28;20040;-67
2021/12/09 08:38:32;;;;;;;18.67;7.77;;;;;;;1.95;100.00;59964.78;5065727;28;20173;-68
2021/12/09 08:40:58;;;;;;;16.17;6.70;;;;;;;2.03;100.00;59976.22;5061179;28;20135;-68
2021/12/09 08:43:24;;;;;;;19.42;6.60;;;;;;;2.03;100.00;59975.69;5066233;28;20119;-68
2021/12/09 08:45:53;;;;;;;18.20;7.00;;;;;;;2.04;100.00;59974.22;5067190;28;20044;-68
2021/12/09 08:48:19;;;;;;;16.05;6.47;;;;;;;2.03;100.00;59971.19;5066350;28;20072;-69
2021/12/09 08:50:45;;;;;;;21.30;7.10;;;;;;;2.05;100.00;59978.31;5068125;28;20047;-67
2021/12/09 08:53:14;;;;;;;15.90;6.53;;;;;;;2.13;100.00;59983.16;5063162;28;20044;-67
2021/12/09 08:55:40;;;;;;;26.30;8.80;;;;;;;2.10;100.00;59978.03;5053054;28;20045;-68
2021/12/09 08:58:09;;;;;;;21.63;7.07;;;;;;;2.08;100.00;59973.94;5065618;28;20072;-67
2021/12/09 09:00:35;;;;;;;19.92;6.93;;;;;;;2.06;100.00;59979.38;5065356;28;20332;-68
2021/12/09 09:03:02;;;;;;;18.55;7.05;;;;;;;2.05;100.00;59980.31;5061635;28;20044;-68
2021/12/09 09:05:29;;;;;;;15.15;6.90;;;;;;;2.06;100.00;59978.88;5060810;28;20036;-67
2021/12/09 09:07:55;;;;;;;15.70;7.00;;;;;;;2.08;100.00;59981.47;5065254;28;20067;-68
2021/12/09 09:10:23;;;;;;;18.13;7.00;;;;;;;2.12;100.00;59977.06;5062143;28;20515;-68
2021/12/09 09:12:50;;;;;;;19.03;7.47;;;;;;;2.05;100.00;59975.81;5054166;28;20257;-67
2021/12/09 09:15:18;;;;;;;22.27;6.90;;;;;;;2.12;100.00;59980.13;5059262;28;20261;-68
2021/12/09 09:17:43;;;;;;;15.43;6.07;;;;;;;2.21;100.00;59991.59;5056949;28;20035;-68
2021/12/09 09:20:11;;;;;;;19.80;7.20;;;;;;;2.34;100.00;60004.72;5060915;28;20048;-68
2021/12/09 09:22:38;;;;;;;18.33;8.30;;;;;;;2.37;100.00;60005.88;5055144;28;20093;-68
2021/12/09 09:25:06;;;;;;;16.50;8.43;;;;;;;2.36;100.00;60006.81;5062173;28;20262;-67
2021/12/09 09:27:32;;;;;;;19.73;7.63;;;;;;;2.46;100.00;60011.78;5064717;28;20041;-68
2021/12/09 09:29:57;;;;;;;30.97;9.07;;;;;;;2.50;100.00;60013.47;5049465;28;20280;-68
2021/12/09 09:32:23;;;;;;;19.10;7.83;;;;;;;2.48;100.00;60019.44;5049687;28;20127;-68
2021/12/09 09:34:49;;;;;;;15.97;7.83;;;;;;;2.53;100.00;60024.69;5050059;28;20041;-68
2021/12/09 09:37:15;;;;;;;25.80;10.02;;;;;;;2.66;100.00;60037.31;5063568;28;20426;-68
2021/12/09 09:39:43;;;;;;;24.03;8.40;;;;;;;2.72;100.00;60043.63;5065209;28;20033;-68
2021/12/09 09:44:46;;;;;;;23.07;9.23;;;;;;;2.90;100.00;60062.03;5065307;28;20652;-68
2021/12/09 09:47:12;;;;;;;22.60;8.67;;;;;;;2.92;100.00;60062.16;5064346;28;20094;-68
2021/12/09 09:49:39;;;;;;;27.53;10.93;;;;;;;2.90;100.00;60062.56;5064945;28;20307;-68
2021/12/09 09:52:08;;;;;;;27.30;10.13;;;;;;;2.90;100.00;60057.00;5064030;28;20559;-68
2021/12/09 09:54:35;;;;;;;26.80;12.50;;;;;;;3.05;100.00;60077.28;5065861;28;20782;-68
2021/12/09 09:57:00;;;;;;;27.33;11.80;;;;;;;3.06;100.00;60075.84;5064339;28;20256;-68
2021/12/09 09:59:25;;;;;;;29.13;11.60;;;;;;;3.11;100.00;60086.13;5065205;28;20630;-68
2021/12/09 10:01:55;;;;;;;24.23;11.07;;;;;;;3.14;100.00;60086.78;5064589;28;20048;-68
2021/12/09 10:04:44;;;;;;;28.00;11.93;;;;;;;3.15;100.00;60087.81;5064692;28;20068;-68
2021/12/09 10:07:11;;;;;;;24.57;11.63;;;;;;;3.21;100.00;60091.09;5056919;28;20280;-68
2021/12/09 10:09:37;;;;;;;32.37;11.13;;;;;;;3.25;100.00;60095.28;5064271;28;20372;-68
2021/12/09 10:12:03;;;;;;;27.07;12.93;;;;;;;3.23;100.00;60093.19;5057116;28;20785;-68
2021/12/09 10:14:34;;;;;;;21.53;10.77;;;;;;;3.37;100.00;60110.44;5051396;28;20040;-68
2021/12/09 10:17:14;;;;;;;29.73;13.40;;;;;;;3.46;100.00;60119.38;5063866;28;20280;-68
2021/12/09 10:19:46;;;;;;;28.40;11.47;;;;;;;3.53;100.00;60123.72;5064783;28;20293;-68
2021/12/09 10:22:19;;;;;;;25.43;12.37;;;;;;;3.61;100.00;60135.19;5063649;28;20832;-68
2021/12/09 10:24:46;;;;;;;30.60;13.80;;;;;;;3.65;100.00;60139.41;5065004;28;20281;-68
2021/12/09 10:27:27;;;;;;;25.57;12.23;;;;;;;3.75;100.00;60146.34;5063677;28;20770;-68
2021/12/09 10:29:58;;;;;;;26.87;12.80;;;;;;;3.65;100.00;60141.91;5064742;28;20894;-68
2021/12/09 10:32:29;;;;;;;29.73;13.73;;;;;;;3.61;100.00;60137.72;5063400;28;20284;-68
2021/12/09 10:34:56;;;;;;;30.57;13.37;;;;;;;3.63;100.00;60134.25;5064053;28;20953;-68
2021/12/09 10:37:26;;;;;;;23.77;12.17;;;;;;;3.61;100.00;60137.72;5063269;28;20265;-68
2021/12/09 10:40:08;;;;;;;26.40;12.83;;;;;;;3.73;100.00;60149.81;5052534;28;22644;-68
2021/12/09 10:42:39;;;;;;;25.87;13.33;;;;;;;3.83;100.00;60162.88;5058698;28;20272;-69
2021/12/09 10:45:12;;;;;;;26.47;13.50;;;;;;;3.83;100.00;60157.81;5058927;28;20322;-68
2021/12/09 10:48:01;;;;;;;27.57;14.10;;;;;;;3.84;100.00;60155.81;5063294;28;20281;-68
2021/12/09 10:55:54;;;;;;;26.07;13.63;;;;;;;4.14;100.00;60188.88;5058347;28;20687;-69
2021/12/09 10:58:23;;;;;;;27.43;14.00;;;;;;;4.28;100.00;60196.06;5067442;28;20270;-68
2021/12/09 11:00:55;;;;;;;26.23;14.63;;;;;;;4.41;100.00;60214.28;5067679;28;20349;-69
2021/12/09 11:03:36;;;;;;;28.73;13.57;;;;;;;4.44;100.00;60217.44;5067805;28;20762;-69
2021/12/09 11:06:08;;;;;;;21.97;13.87;;;;;;;4.48;100.00;60221.13;5067588;28;20277;-69
2021/12/09 11:08:46;;;;;;;27.37;13.40;;;;;;;4.53;100.00;60226.94;5065766;28;20289;-68
2021/12/09 11:11:17;;;;;;;23.33;14.47;;;;;;;4.47;100.00;60220.09;5067577;28;20373;-69
2021/12/09 11:13:45;;;;;;;26.97;13.20;;;;;;;4.38;100.00;60218.72;5068289;28;20686;-69
2021/12/09 11:16:14;;;;;;;27.43;14.83;;;;;;;4.49;100.00;60225.22;5067386;28;20327;-68
2021/12/09 11:18:45;;;;;;;29.27;14.90;;;;;;;4.53;100.00;60223.88;5056651;28;20277;-69
2021/12/09 11:21:17;;;;;;;23.00;14.23;;;;;;;4.52;100.00;60228.38;5065577;28;20830;-69
2021/12/09 11:23:59;;;;;;;27.93;13.70;;;;;;;4.62;100.00;60235.38;5067681;28;20276;-69
2021/12/09 11:26:37;;;;;;;25.03;14.13;;;;;;;4.88;100.00;60270.34;5061138;28;20269;-69
2021/12/09 11:29:29;;;;;;;23.97;13.93;;;;;;;4.91;100.00;60265.41;5058246;28;20630;-69
2021/12/09 11:32:17;;;;;;;23.67;14.30;;;;;;;4.83;100.00;60254.97;5062838;28;20273;-69
2021/12/09 11:35:12;;;;;;;27.80;14.77;;;;;;;4.75;100.00;60249.06;5067967;28;20273;-68
2021/12/09 11:37:47;;;;;;;28.90;15.00;;;;;;;4.64;100.00;60234.94;5067394;28;21009;-69